メインページ
METAR-TAF:

METAR-TAF

空港 :

テグシガルパ, ホンジュラス

トンコンティン国際空港

緯度: 14-03N, 経度: 087-13W, 海抜: 994m

現時点の気象観測

当レポートは26分前の06:00(UTC)に作成
北/北東の風 4kt
気温 14°C
湿度 88%
気圧 1021 hPa
視程10km以上
高度2600ftの雲はほとんどない

METAR: MHTG 140600Z 02004KT 9999 FEW026 14/12 Q1021 A3015 NOSIG

時間: 00:26 (06:26 UTC)

予報

当レポートは2時間1分前の04:25(UTC)に作成
予報は14日の 06時(UTC)から 15日の 06時(UTC)まで有効
の風 6kt
視程10km以上
高度2600ftの雲はほとんどない
14日の 13時(UTC)から 14日の 15時(UTC)まで徐々に
東/北東の風 4kt

TAF: MHTG 140425Z 1406/1506 36006KT 9999 FEW026 TX26/1419Z TN11/1412Z BECMG 1413/1415 07004KT

4,000以上の空港の気象観測と天気予報(METAR報とTAF報)

利用可能な観測所は地図上に黄色い丸と赤い丸で示す。

丸の上にカーソルを重ねると観測所名を参照できる。

次にクリックすると気象観測と天気予報を参照できる。

マップの切り替え:黒色「×」印の緑ボタンをクリックして拡大、「-」印の緑ボタンをクリックして縮小、緑色の三角印をクリックして隣りの地図に切り替え


METAR-TAF: